Metar Cercanos

 

LEPA - Palma De Mallorc, Spain
Distance from station: ONO 38km
Actualización: Sat, 31-Jul-2021 9:30pm CEST
Parcialmente nuboso
Parcialmente nuboso
 Viento del SSO
Viento: SSO 6 km/h
Temperatura: 28°C
Indice Calor: 32°C
Rocío: 24°C
Humedad: 79%
Barómetro: 1006 hPa
Clouds: Parcialmente nuboso
Visibility: 10 km
Cloud details: Few Clouds 610 m
Parcialmente nuboso 975 m
2021/07/31 19:30 LEPA 311930Z 20003KT 150V240 9999 FEW020 SCT032 28/24 Q1006 NOSIG
LEMH - Mahon/Menorca Is, Spain
Distance from station: ENE 105km
Actualización: Sat, 31-Jul-2021 9:30pm CEST
Parcialmente nuboso
Parcialmente nuboso
 Viento del NE
Viento: NE 15 km/h
Temperatura: 26°C
Rocío: 23°C
Humedad: 84%
Barómetro: 1009 hPa
Clouds: Parcialmente nuboso
Visibility: 10 km
Cloud details: Few Clouds 396 m
Parcialmente nuboso 762 m
2021/07/31 19:30 LEMH 311930Z 05008KT 9999 FEW013 SCT025 26/23 Q1009
 
LEIB - Ibiza/Es Codola, Spain
Distance from station: OSO 165km
Actualización: Sat, 31-Jul-2021 9:30pm CEST
Parcialmente nuboso
Parcialmente nuboso
 Viento del OSO
Viento: OSO 19 km/h
Temperatura: 26°C
Rocío: 23°C
Humedad: 84%
Barómetro: 1007 hPa
Clouds: Parcialmente nuboso
Visibility: 10 km
Cloud details: Parcialmente nuboso 396 m
2021/07/31 19:30 LEIB 311930Z 24010KT 200V260 9999 SCT013 26/23 Q1007 NOSIG
LEBL - Barcelona Airpor, Spain
Distance from station: NNO 225km
Actualización: Sat, 31-Jul-2021 9:35pm CEST
Thunderstorm, Lluvia intensa, Showers, Parcialmente nuboso
Thunderstorm, Lluvia intensa, Showers, Parcialmente nuboso
 Viento del O
Viento: O 46 km/h
Temperatura: 18°C
Rocío: 16°C
Humedad: 88%
Barómetro: 1012 hPa
Resumen: Thunderstorm, Lluvia intensa, Showers
Clouds: Parcialmente nuboso
Visibility: 2 km
Cloud details: Few Clouds 610 m
Parcialmente nuboso 1372 m
2021/07/31 19:35 LEBL 311935Z 26025KT 2000 TS +SHRA FEW020CB SCT045 18/16 Q1012 NOSIG
 
LEVC - Valencia (civ/Mi, Spain
Distance from station: NO 188km
Actualización: Sat, 31-Jul-2021 9:30pm CEST
Few Clouds
Few Clouds
 Viento del varies
Viento: varies 7 km/h
Temperatura: 26°C
Rocío: 19°C
Humedad: 65%
Barómetro: 1009 hPa
Clouds: Few Clouds
Visibility: 10 km
Cloud details: Few Clouds 610 m
2021/07/31 19:30 LEVC 311930Z VRB04KT 9999 FEW020 26/19 Q1009 NOSIG
LEGE - Gerona/Costa Bra, Spain
Distance from station: N 276km
Actualización: Sat, 31-Jul-2021 9:30pm CEST
Nearby thunderstorm, Few clouds
Nearby thunderstorm, Few clouds
 Viento del NE
Viento: NE 15 km/h
Temperatura: 22°C
Rocío: 12°C
Humedad: 53%
Barómetro: 1009 hPa
Resumen: Nearby Thunderstorm
Clouds: Few Clouds
Visibility: 10 km
Cloud details: Few Clouds 1524 m
2021/07/31 19:30 LEGE 311930Z 04008KT 010V070 9999 VCTS FEW050CB 22/12 Q1009
 
LEAL - Alicante/El Alte, Spain
Distance from station: OSO 344km
Actualización: Sat, 31-Jul-2021 9:30pm CEST
Despejado
Despejado
 Viento del NO
Viento: NO 7 km/h
Temperatura: 27°C
Indice Calor: 30°C
Rocío: 23°C
Humedad: 79%
Barómetro: 1008 hPa
Resumen: Despejado
Visibility: greater than 10 km
2021/07/31 19:30 LEAL 311930Z 31004KT 280V010 CAVOK 27/23 Q1008 NOSIG
LEAM - Almeria Airport, Spain
Distance from station: SSO 56km
Actualización: Sat, 31-Jul-2021 9:30pm CEST
Despejado
Despejado
 Viento del OSO
Viento: OSO 31 km/h
Temperatura: 23°C
Rocío: 17°C
Humedad: 69%
Barómetro: 1009 hPa
Resumen: Despejado
Visibility: greater than 10 km
2021/07/31 19:30 LEAM 311930Z 25017KT CAVOK 23/17 Q1009
 
LEZG - Zaragoza (mil/Ci, Spain
Distance from station: NO 431km
Actualización: Sat, 31-Jul-2021 9:30pm CEST
Few Clouds
Few Clouds
 Viento del ONO
Viento: ONO 44 km/h
Temperatura: 19°C
Rocío: 9°C
Humedad: 52%
Barómetro: 1014 hPa
Clouds: Few Clouds
Visibility: 10 km
Cloud details: Few Clouds 1524 m
2021/07/31 19:30 LEZG 311930Z 29024KT 9999 FEW050 19/09 Q1014
LEMD - Madrid/Barajas, Spain
Distance from station: ONO 234km
Actualización: Sat, 31-Jul-2021 9:30pm CEST
Few Clouds
Few Clouds
 Viento del NNE
Viento: NNE 13 km/h
Temperatura: 21°C
Rocío: 11°C
Humedad: 53%
Barómetro: 1015 hPa
Clouds: Few Clouds
Visibility: 10 km
Cloud details: Few Clouds 2134 m
2021/07/31 19:30 LEMD 311930Z 03007KT 010V070 9999 FEW070 21/11 Q1015 NOSIG
 
LEGR - Granada Airport, Spain
Distance from station: OSO 62km
Actualización: Sat, 31-Jul-2021 9:30pm CEST
Despejado
Despejado
 Viento del ONO
Viento: ONO 9 km/h
Temperatura: 26°C
Rocío: 6°C
Humedad: 28%
Barómetro: 1015 hPa
Resumen: Despejado
Visibility: greater than 10 km
2021/07/31 19:30 LEGR 311930Z 29005KT 260V320 CAVOK 26/06 Q1015
LEMG - Malaga (civ/Mil), Spain
Distance from station: OSO 227km
Actualización: Sat, 31-Jul-2021 9:30pm CEST
Despejado
Despejado
 Viento del ONO
Viento: ONO 20 km/h
Temperatura: 30°C
Rocío: 8°C
Humedad: 25%
Barómetro: 1012 hPa
Resumen: Despejado
Visibility: greater than 10 km
2021/07/31 19:30 LEMG 311930Z 29011KT CAVOK 30/08 Q1012 NOSIG
 
LEZL - Sevilla (civ/Mil, Spain
Distance from station: S 318km
Actualización: Sat, 31-Jul-2021 9:30pm CEST
Despejado
Despejado
 Viento del NO
Viento: NO 20 km/h
Temperatura: 29°C
Rocío: 5°C
Humedad: 22%
Barómetro: 1013 hPa
Resumen: Despejado
Visibility: greater than 10 km
2021/07/31 19:30 LEZL 311930Z 32011KT CAVOK 29/05 Q1013 NOSIG
LEVT - Vitoria, Spain
Distance from station: NO 226km
Actualización: Sat, 31-Jul-2021 9:30pm CEST
Muy nuboso
Muy nuboso
 Viento del ONO
Viento: ONO 7 km/h
Temperatura: 13°C
Rocío: 10°C
Humedad: 82%
Barómetro: 1019 hPa
Clouds: Muy nuboso
Visibility: 10 km
Cloud details: Parcialmente nuboso 549 m
Parcialmente nuboso 1402 m
Muy nuboso 1707 m
2021/07/31 19:30 LEVT 311930Z 29004KT 260V350 9999 SCT018 SCT046 BKN056 13/10 Q1019
 
LEBB - Bilbao/Sondica, Spain
Distance from station: NNO 235km
Actualización: Sat, 31-Jul-2021 9:30pm CEST
Few Clouds
Few Clouds
 Viento del calm
Viento: Calma
Temperatura: 17°C
Rocío: 15°C
Humedad: 88%
Barómetro: 1018 hPa
Clouds: Few Clouds
Visibility: 10 km
Cloud details: Few Clouds 1768 m
2021/07/31 19:30 LEBB 311930Z 00000KT 9999 FEW058 17/15 Q1018 TEMPO 3000 RA
LESO - San Sebastian/Fu, Spain
Distance from station: N 231km
Actualización: Sat, 31-Jul-2021 9:30pm CEST
Muy nuboso
Muy nuboso
 Viento del SO
Viento: SO 11 km/h
Temperatura: 17°C
Rocío: 15°C
Humedad: 88%
Barómetro: 1017 hPa
Clouds: Muy nuboso
Visibility: 10 km
Cloud details: Muy nuboso 762 m
Muy nuboso 1372 m
2021/07/31 19:30 LESO 311930Z 23006KT 180V270 9999 BKN025 BKN045 17/15 Q1017
 
LEVD - Valladolid(Mil/C, Spain
Distance from station: ONO 239km
Actualización: Sat, 31-Jul-2021 9:30pm CEST
Parcialmente nuboso
Parcialmente nuboso
 Viento del E
Viento: E 22 km/h
Temperatura: 16°C
Rocío: 7°C
Humedad: 55%
Barómetro: 1017 hPa
Clouds: Parcialmente nuboso
Visibility: 10 km
Cloud details: Parcialmente nuboso 1463 m
2021/07/31 19:30 LEVD 311930Z 08012KT 9999 SCT048 16/07 Q1017
LESA - Salamanca (civ/M, Spain
Distance from station: ONO 349km
Actualización: Sat, 31-Jul-2021 9:30pm CEST
Despejado
Despejado
 Viento del NO
Viento: NO 15 km/h
Temperatura: 19°C
Rocío: 6°C
Humedad: 43%
Barómetro: 1017 hPa
Resumen: Despejado
Visibility: greater than 10 km
2021/07/31 19:30 LESA 311930Z 31008KT 290V350 CAVOK 19/06 Q1017
 
LEXJ - Santander/Paraya, Spain
Distance from station: NNO 247km
Actualización: Sat, 31-Jul-2021 9:30pm CEST
Parcialmente nuboso
Parcialmente nuboso
 Viento del SO
Viento: SO 13 km/h
Temperatura: 16°C
Rocío: 14°C
Humedad: 88%
Barómetro: 1018 hPa
Clouds: Parcialmente nuboso
Visibility: 10 km
Cloud details: Few Clouds 975 m
Parcialmente nuboso 1676 m
2021/07/31 19:30 LEXJ 311930Z 22007KT 9999 FEW032 SCT055 16/14 Q1018
LEAS - Asturias/Aviles, Spain
Distance from station: NO 214km
Actualización: Sat, 31-Jul-2021 9:30pm CEST
Parcialmente nuboso
Parcialmente nuboso
 Viento del O
Viento: O 13 km/h
Temperatura: 17°C
Rocío: 13°C
Humedad: 77%
Barómetro: 1019 hPa
Clouds: Parcialmente nuboso
Visibility: 10 km
Cloud details: Parcialmente nuboso 853 m
2021/07/31 19:30 LEAS 311930Z 27007KT 210V310 9999 SCT028 17/13 Q1019 NOSIG
 
LECO - La Coruna/Alvedr, Spain
Distance from station: ONO 222km
Actualización: Sat, 31-Jul-2021 9:30pm CEST
Muy nuboso
Muy nuboso
 Viento del ONO
Viento: ONO 17 km/h
Temperatura: 17°C
Rocío: 14°C
Humedad: 83%
Barómetro: 1020 hPa
Clouds: Muy nuboso
Visibility: 10 km
Cloud details: Few Clouds 1158 m
Muy nuboso 1463 m
2021/07/31 19:30 LECO 311930Z 30009KT 240V010 9999 FEW038 BKN048 17/14 Q1020 NOSIG
LEVX - Vigo/Peinador, Spain
Distance from station: O 214km
Actualización: Sat, 31-Jul-2021 9:30pm CEST
Despejado
Despejado
 Viento del ONO
Viento: ONO 17 km/h
Temperatura: 16°C
Rocío: 11°C
Humedad: 72%
Barómetro: 1020 hPa
Resumen: Despejado
Visibility: greater than 10 km
2021/07/31 19:30 LEVX 311930Z 30009KT 260V350 CAVOK 16/11 Q1020 NOSIG